sensor_id;sensor_type;location;lat;lon;timestamp;pressure;altitude;pressure_sealevel;temperature;humidity
14885;BME280;7534;50.762;7.000;2023-06-14T00:01:50;86788.63;;;-143.16;42.41
14885;BME280;7534;50.762;7.000;2023-06-14T00:04:16;86784.56;;;-143.16;42.63
14885;BME280;7534;50.762;7.000;2023-06-14T00:06:44;86750.28;;;-143.16;42.71
14885;BME280;7534;50.762;7.000;2023-06-14T00:09:12;86877.41;;;-143.16;42.72
14885;BME280;7534;50.762;7.000;2023-06-14T00:11:40;86812.81;;;-143.16;42.95
14885;BME280;7534;50.762;7.000;2023-06-14T00:14:06;86820.91;;;-143.16;42.84
14885;BME280;7534;50.762;7.000;2023-06-14T00:16:31;86812.81;;;-143.16;42.92
14885;BME280;7534;50.762;7.000;2023-06-14T00:18:59;86835.03;;;-143.16;42.89
14885;BME280;7534;50.762;7.000;2023-06-14T00:21:25;86909.69;;;-143.16;43.02
14885;BME280;7534;50.762;7.000;2023-06-14T00:23:53;86837.03;;;-143.16;43.10
14885;BME280;7534;50.762;7.000;2023-06-14T00:26:19;86891.53;;;-143.16;43.46
14885;BME280;7534;50.762;7.000;2023-06-14T00:28:45;86849.16;;;-143.16;43.49
14885;BME280;7534;50.762;7.000;2023-06-14T00:31:10;86887.50;;;-143.16;43.43
14885;BME280;7534;50.762;7.000;2023-06-14T00:33:37;86857.22;;;-143.16;43.71
14885;BME280;7534;50.762;7.000;2023-06-14T00:36:03;86992.41;;;-143.16;43.79
14885;BME280;7534;50.762;7.000;2023-06-14T00:38:29;86885.47;;;-143.16;43.97
14885;BME280;7534;50.762;7.000;2023-06-14T00:40:54;86887.50;;;-143.16;44.06
14885;BME280;7534;50.762;7.000;2023-06-14T00:43:20;86905.66;;;-143.16;44.07
14885;BME280;7534;50.762;7.000;2023-06-14T00:45:45;86917.75;;;-143.16;44.36
14885;BME280;7534;50.762;7.000;2023-06-14T00:48:14;86929.88;;;-143.16;44.45
14885;BME280;7534;50.762;7.000;2023-06-14T00:50:40;86929.88;;;-143.16;44.45
14885;BME280;7534;50.762;7.000;2023-06-14T00:53:07;86933.91;;;-143.16;44.61
14885;BME280;7534;50.762;7.000;2023-06-14T00:55:33;86905.66;;;-143.16;44.56
14885;BME280;7534;50.762;7.000;2023-06-14T00:57:58;86917.75;;;-143.16;45.02
14885;BME280;7534;50.762;7.000;2023-06-14T01:00:24;86905.66;;;-143.16;45.36
14885;BME280;7534;50.762;7.000;2023-06-14T01:02:50;86954.09;;;-143.16;45.77
14885;BME280;7534;50.762;7.000;2023-06-14T01:05:17;86966.19;;;-143.16;45.77
14885;BME280;7534;50.762;7.000;2023-06-14T01:08:11;86911.69;;;-143.16;46.13
14885;BME280;7534;50.762;7.000;2023-06-14T01:10:53;86970.22;;;-143.16;46.27
14885;BME280;7534;50.762;7.000;2023-06-14T01:13:29;86974.25;;;-143.16;45.97
14885;BME280;7534;50.762;7.000;2023-06-14T01:15:58;86958.13;;;-143.16;45.77
14885;BME280;7534;50.762;7.000;2023-06-14T01:18:24;86970.22;;;-143.16;45.94
14885;BME280;7534;50.762;7.000;2023-06-14T01:20:52;86990.41;;;-143.16;46.21
14885;BME280;7534;50.762;7.000;2023-06-14T01:23:22;86978.28;;;-143.16;46.39
14885;BME280;7534;50.762;7.000;2023-06-14T01:25:50;86972.25;;;-143.16;46.68
14885;BME280;7534;50.762;7.000;2023-06-14T01:28:21;87026.72;;;-143.16;47.18
14885;BME280;7534;50.762;7.000;2023-06-14T01:30:50;87016.63;;;-143.16;47.34
14885;BME280;7534;50.762;7.000;2023-06-14T01:33:24;87046.91;;;-143.16;47.42
14885;BME280;7534;50.762;7.000;2023-06-14T01:35:53;87036.81;;;-143.16;47.13
14885;BME280;7534;50.762;7.000;2023-06-14T01:38:30;87032.78;;;-143.16;47.29
14885;BME280;7534;50.762;7.000;2023-06-14T01:40:58;87048.94;;;-143.16;47.37
14885;BME280;7534;50.762;7.000;2023-06-14T01:43:25;87038.84;;;-143.16;47.52
14885;BME280;7534;50.762;7.000;2023-06-14T01:45:54;87095.34;;;-143.16;47.58
14885;BME280;7534;50.762;7.000;2023-06-14T01:48:21;87028.75;;;-143.16;47.65
14885;BME280;7534;50.762;7.000;2023-06-14T01:50:49;87097.34;;;-143.16;47.85
14885;BME280;7534;50.762;7.000;2023-06-14T01:53:15;87077.19;;;-143.16;47.84
14885;BME280;7534;50.762;7.000;2023-06-14T01:55:41;87075.16;;;-143.16;47.84
14885;BME280;7534;50.762;7.000;2023-06-14T01:58:09;87054.97;;;-143.16;47.87
14885;BME280;7534;50.762;7.000;2023-06-14T02:00:35;87054.97;;;-143.16;47.79
14885;BME280;7534;50.762;7.000;2023-06-14T02:03:02;87107.44;;;-143.16;47.69
14885;BME280;7534;50.762;7.000;2023-06-14T02:05:30;87091.31;;;-143.16;47.80
14885;BME280;7534;50.762;7.000;2023-06-14T02:07:55;87103.41;;;-143.16;47.86
14885;BME280;7534;50.762;7.000;2023-06-14T02:10:21;87184.13;;;-143.16;47.91
14885;BME280;7534;50.762;7.000;2023-06-14T02:12:47;87099.38;;;-143.16;47.84
14885;BME280;7534;50.762;7.000;2023-06-14T02:15:13;87123.59;;;-143.16;47.85
14885;BME280;7534;50.762;7.000;2023-06-14T02:17:48;87147.81;;;-143.16;47.89
14885;BME280;7534;50.762;7.000;2023-06-14T02:20:15;87111.47;;;-143.16;48.12
14885;BME280;7534;50.762;7.000;2023-06-14T02:22:41;87121.56;;;-143.16;48.36
14885;BME280;7534;50.762;7.000;2023-06-14T02:25:07;87180.09;;;-143.16;48.75
14885;BME280;7534;50.762;7.000;2023-06-14T02:27:34;87111.47;;;-143.16;48.73
14885;BME280;7534;50.762;7.000;2023-06-14T02:30:01;87159.91;;;-143.16;48.85
14885;BME280;7534;50.762;7.000;2023-06-14T02:32:27;87246.69;;;-143.16;48.87
14885;BME280;7534;50.762;7.000;2023-06-14T02:34:53;87151.84;;;-143.16;49.08
14885;BME280;7534;50.762;7.000;2023-06-14T02:37:20;87151.84;;;-143.16;49.25
14885;BME280;7534;50.762;7.000;2023-06-14T02:39:45;87119.56;;;-143.16;49.25
14885;BME280;7534;50.762;7.000;2023-06-14T02:42:11;87182.13;;;-143.16;49.38
14885;BME280;7534;50.762;7.000;2023-06-14T02:44:37;87163.94;;;-143.16;49.39
14885;BME280;7534;50.762;7.000;2023-06-14T02:47:04;87151.84;;;-143.16;49.50
14885;BME280;7534;50.762;7.000;2023-06-14T02:49:30;87119.56;;;-143.16;49.68
14885;BME280;7534;50.762;7.000;2023-06-14T02:51:56;87172.03;;;-143.16;50.01
14885;BME280;7534;50.762;7.000;2023-06-14T02:54:22;87232.56;;;-143.16;50.24
14885;BME280;7534;50.762;7.000;2023-06-14T02:56:48;87176.06;;;-143.16;50.39
14885;BME280;7534;50.762;7.000;2023-06-14T02:59:14;87137.72;;;-143.16;50.66
14885;BME280;7534;50.762;7.000;2023-06-14T03:01:41;87202.28;;;-143.16;50.77
14885;BME280;7534;50.762;7.000;2023-06-14T03:04:08;87238.63;;;-143.16;51.05
14885;BME280;7534;50.762;7.000;2023-06-14T03:06:34;87230.56;;;-143.16;51.04
14885;BME280;7534;50.762;7.000;2023-06-14T03:09:00;87256.78;;;-143.16;50.99
14885;BME280;7534;50.762;7.000;2023-06-14T03:11:32;87256.78;;;-143.16;50.68
14885;BME280;7534;50.762;7.000;2023-06-14T03:13:58;87206.34;;;-143.16;50.62
14885;BME280;7534;50.762;7.000;2023-06-14T03:16:24;87216.44;;;-143.16;50.50
14885;BME280;7534;50.762;7.000;2023-06-14T03:18:53;87238.63;;;-143.16;50.64
14885;BME280;7534;50.762;7.000;2023-06-14T03:21:19;87212.38;;;-143.16;50.83
14885;BME280;7534;50.762;7.000;2023-06-14T03:23:47;87186.16;;;-143.16;50.69
14885;BME280;7534;50.762;7.000;2023-06-14T03:26:13;87236.59;;;-143.16;51.08
14885;BME280;7534;50.762;7.000;2023-06-14T03:28:48;87226.50;;;-143.16;51.21
14885;BME280;7534;50.762;7.000;2023-06-14T03:31:15;87180.09;;;-143.16;51.51
14885;BME280;7534;50.762;7.000;2023-06-14T03:33:41;87224.50;;;-143.16;51.83
14885;BME280;7534;50.762;7.000;2023-06-14T03:36:07;87226.50;;;-143.16;51.72
14885;BME280;7534;50.762;7.000;2023-06-14T03:38:33;87246.69;;;-143.16;51.56
14885;BME280;7534;50.762;7.000;2023-06-14T03:40:59;87222.47;;;-143.16;51.48
14885;BME280;7534;50.762;7.000;2023-06-14T03:43:24;87212.38;;;-143.16;51.39
14885;BME280;7534;50.762;7.000;2023-06-14T03:45:50;87236.59;;;-143.16;51.30
14885;BME280;7534;50.762;7.000;2023-06-14T03:48:17;87163.94;;;-143.16;51.12
14885;BME280;7534;50.762;7.000;2023-06-14T03:50:43;87214.41;;;-143.16;51.02
14885;BME280;7534;50.762;7.000;2023-06-14T03:53:10;87212.38;;;-143.16;50.87
14885;BME280;7534;50.762;7.000;2023-06-14T03:55:36;87204.31;;;-143.16;50.78
14885;BME280;7534;50.762;7.000;2023-06-14T03:58:03;87204.31;;;-143.16;50.49
14885;BME280;7534;50.762;7.000;2023-06-14T04:00:29;87214.41;;;-143.16;50.50
14885;BME280;7534;50.762;7.000;2023-06-14T04:02:54;87192.22;;;-143.16;50.26
14885;BME280;7534;50.762;7.000;2023-06-14T04:05:20;87155.88;;;-143.16;50.18
14885;BME280;7534;50.762;7.000;2023-06-14T04:07:46;87137.72;;;-143.16;50.00
14885;BME280;7534;50.762;7.000;2023-06-14T04:10:15;87115.53;;;-143.16;49.72
14885;BME280;7534;50.762;7.000;2023-06-14T04:12:42;87170.00;;;-143.16;49.52
14885;BME280;7534;50.762;7.000;2023-06-14T04:15:08;87061.03;;;-143.16;49.27
14885;BME280;7534;50.762;7.000;2023-06-14T04:17:35;87020.69;;;-143.16;48.75
14885;BME280;7534;50.762;7.000;2023-06-14T04:20:02;87022.69;;;-143.16;48.48
14885;BME280;7534;50.762;7.000;2023-06-14T04:22:30;87026.72;;;-143.16;48.18
14885;BME280;7534;50.762;7.000;2023-06-14T04:24:57;87048.94;;;-143.16;48.11
14885;BME280;7534;50.762;7.000;2023-06-14T04:27:23;86986.38;;;-143.16;47.97
14885;BME280;7534;50.762;7.000;2023-06-14T04:29:55;86921.78;;;-143.16;47.91
14885;BME280;7534;50.762;7.000;2023-06-14T04:32:29;86976.28;;;-143.16;46.22
14885;BME280;7534;50.762;7.000;2023-06-14T04:35:07;86929.88;;;-143.16;45.84
14885;BME280;7534;50.762;7.000;2023-06-14T04:37:33;86837.03;;;-143.16;44.63
14885;BME280;7534;50.762;7.000;2023-06-14T04:40:00;86828.97;;;-143.16;44.28
14885;BME280;7534;50.762;7.000;2023-06-14T04:42:26;86748.25;;;-143.16;43.42
14885;BME280;7534;50.762;7.000;2023-06-14T04:44:56;86528.31;;;-143.16;40.40
14885;BME280;7534;50.762;7.000;2023-06-14T04:47:23;86239.81;;;-143.16;37.02
14885;BME280;7534;50.762;7.000;2023-06-14T04:49:50;85882.72;;;-143.16;34.19
14885;BME280;7534;50.762;7.000;2023-06-14T04:52:19;85689.06;;;-143.16;31.74
14885;BME280;7534;50.762;7.000;2023-06-14T04:54:47;85378.44;;;-143.16;29.88
14885;BME280;7534;50.762;7.000;2023-06-14T04:57:14;85204.97;;;-143.16;28.73
14885;BME280;7534;50.762;7.000;2023-06-14T04:59:43;85041.59;;;-143.16;27.71
14885;BME280;7534;50.762;7.000;2023-06-14T05:02:10;84985.13;;;-143.16;27.26
14885;BME280;7534;50.762;7.000;2023-06-14T05:04:37;84946.81;;;-143.16;27.00
14885;BME280;7534;50.762;7.000;2023-06-14T05:07:07;85021.44;;;-143.16;27.70
14885;BME280;7534;50.762;7.000;2023-06-14T05:09:33;85213.03;;;-143.16;28.14
14885;BME280;7534;50.762;7.000;2023-06-14T05:11:59;85376.41;;;-143.16;29.07
14885;BME280;7534;50.762;7.000;2023-06-14T05:14:26;85521.63;;;-143.16;29.50
14885;BME280;7534;50.762;7.000;2023-06-14T05:16:52;85695.13;;;-143.16;30.05
14885;BME280;7534;50.762;7.000;2023-06-14T05:19:19;85983.59;;;-143.16;31.33
14885;BME280;7534;50.762;7.000;2023-06-14T05:21:47;86017.88;;;-143.16;31.37
14885;BME280;7534;50.762;7.000;2023-06-14T05:24:15;85864.56;;;-143.16;30.65
14885;BME280;7534;50.762;7.000;2023-06-14T05:26:43;85670.91;;;-143.16;29.46
14885;BME280;7534;50.762;7.000;2023-06-14T05:29:11;85442.97;;;-143.16;28.11
14885;BME280;7534;50.762;7.000;2023-06-14T05:31:37;85309.84;;;-143.16;27.04
14885;BME280;7534;50.762;7.000;2023-06-14T05:34:04;85249.34;;;-143.16;26.88
14885;BME280;7534;50.762;7.000;2023-06-14T05:36:30;85497.44;;;-143.16;27.74
14885;BME280;7534;50.762;7.000;2023-06-14T05:38:56;85670.91;;;-143.16;28.24
14885;BME280;7534;50.762;7.000;2023-06-14T05:41:26;85943.25;;;-143.16;29.62
14885;BME280;7534;50.762;7.000;2023-06-14T05:43:53;86048.16;;;-143.16;30.57
14885;BME280;7534;50.762;7.000;2023-06-14T05:46:22;86203.50;;;-143.16;31.83
14885;BME280;7534;50.762;7.000;2023-06-14T05:48:52;86286.22;;;-143.16;32.64
14885;BME280;7534;50.762;7.000;2023-06-14T05:51:17;86324.53;;;-143.16;32.76
14885;BME280;7534;50.762;7.000;2023-06-14T05:53:49;86381.03;;;-143.16;33.27
14885;BME280;7534;50.762;7.000;2023-06-14T05:56:17;86421.38;;;-143.16;33.79
14885;BME280;7534;50.762;7.000;2023-06-14T05:58:45;86471.81;;;-143.16;34.00
14885;BME280;7534;50.762;7.000;2023-06-14T06:01:11;86490.00;;;-143.16;34.16
14885;BME280;7534;50.762;7.000;2023-06-14T06:03:36;86485.94;;;-143.16;34.27
14885;BME280;7534;50.762;7.000;2023-06-14T06:06:02;86481.91;;;-143.16;34.31
14885;BME280;7534;50.762;7.000;2023-06-14T06:08:29;86459.72;;;-143.16;34.38
14885;BME280;7534;50.762;7.000;2023-06-14T06:10:56;86469.81;;;-143.16;34.62
14885;BME280;7534;50.762;7.000;2023-06-14T06:13:22;86461.75;;;-143.16;34.79
14885;BME280;7534;50.762;7.000;2023-06-14T06:15:48;86584.81;;;-143.16;34.65
14885;BME280;7534;50.762;7.000;2023-06-14T06:18:14;86510.16;;;-143.16;34.48
14885;BME280;7534;50.762;7.000;2023-06-14T06:20:39;86441.56;;;-143.16;34.25
14885;BME280;7534;50.762;7.000;2023-06-14T06:23:05;86631.22;;;-143.16;34.51
14885;BME280;7534;50.762;7.000;2023-06-14T06:25:31;86453.66;;;-143.16;34.87
14885;BME280;7534;50.762;7.000;2023-06-14T06:27:57;86445.59;;;-143.16;34.19
14885;BME280;7534;50.762;7.000;2023-06-14T06:30:24;86473.84;;;-143.16;34.48
14885;BME280;7534;50.762;7.000;2023-06-14T06:32:51;86389.09;;;-143.16;33.93
14885;BME280;7534;50.762;7.000;2023-06-14T06:35:16;86381.03;;;-143.16;34.11
14885;BME280;7534;50.762;7.000;2023-06-14T06:37:42;86381.03;;;-143.16;33.84
14885;BME280;7534;50.762;7.000;2023-06-14T06:40:09;86377.00;;;-143.16;33.76
14885;BME280;7534;50.762;7.000;2023-06-14T06:42:35;86334.63;;;-143.16;33.24
14885;BME280;7534;50.762;7.000;2023-06-14T06:45:01;86262.00;;;-143.16;32.89
14885;BME280;7534;50.762;7.000;2023-06-14T06:47:27;86286.22;;;-143.16;33.01
14885;BME280;7534;50.762;7.000;2023-06-14T06:49:53;86227.69;;;-143.16;32.61
14885;BME280;7534;50.762;7.000;2023-06-14T06:52:19;86140.94;;;-143.16;32.03
14885;BME280;7534;50.762;7.000;2023-06-14T06:54:44;86011.84;;;-143.16;31.12
14885;BME280;7534;50.762;7.000;2023-06-14T06:57:10;85800.00;;;-143.16;29.95
14885;BME280;7534;50.762;7.000;2023-06-14T06:59:36;85289.69;;;-143.16;27.44
14885;BME280;7534;50.762;7.000;2023-06-14T07:02:04;85017.41;;;-143.16;25.76
14885;BME280;7534;50.762;7.000;2023-06-14T07:04:30;84684.63;;;-143.16;24.37
14885;BME280;7534;50.762;7.000;2023-06-14T07:06:57;84470.88;;;-143.16;23.60
14885;BME280;7534;50.762;7.000;2023-06-14T07:09:22;84416.44;;;-143.16;23.31
14885;BME280;7534;50.762;7.000;2023-06-14T07:11:50;84230.94;;;-143.16;22.93
14885;BME280;7534;50.762;7.000;2023-06-14T07:14:16;84065.59;;;-143.16;22.19
14885;BME280;7534;50.762;7.000;2023-06-14T07:16:42;83914.38;;;-143.16;21.79
14885;BME280;7534;50.762;7.000;2023-06-14T07:19:08;83997.03;;;-143.16;21.76
14885;BME280;7534;50.762;7.000;2023-06-14T07:21:35;84130.13;;;-143.16;22.30
14885;BME280;7534;50.762;7.000;2023-06-14T07:24:04;83906.31;;;-143.16;21.84
14885;BME280;7534;50.762;7.000;2023-06-14T07:26:32;83853.91;;;-143.16;21.43
14885;BME280;7534;50.762;7.000;2023-06-14T07:28:57;83805.50;;;-143.16;21.60
14885;BME280;7534;50.762;7.000;2023-06-14T07:31:23;83622.06;;;-143.16;21.18
14885;BME280;7534;50.762;7.000;2023-06-14T07:33:49;83442.63;;;-143.16;20.53
14885;BME280;7534;50.762;7.000;2023-06-14T07:36:14;83698.66;;;-143.16;20.92
14885;BME280;7534;50.762;7.000;2023-06-14T07:38:40;83539.38;;;-143.16;20.83
14885;BME280;7534;50.762;7.000;2023-06-14T07:41:07;83275.31;;;-143.16;20.46
14885;BME280;7534;50.762;7.000;2023-06-14T07:43:34;83162.44;;;-143.16;20.31
14885;BME280;7534;50.762;7.000;2023-06-14T07:46:00;83188.63;;;-143.16;20.24
14885;BME280;7534;50.762;7.000;2023-06-14T07:48:26;83424.47;;;-143.16;20.29
14885;BME280;7534;50.762;7.000;2023-06-14T07:50:52;83410.38;;;-143.16;20.64
14885;BME280;7534;50.762;7.000;2023-06-14T07:53:18;83267.25;;;-143.16;20.31
14885;BME280;7534;50.762;7.000;2023-06-14T07:55:44;83293.47;;;-143.16;20.31
14885;BME280;7534;50.762;7.000;2023-06-14T07:58:10;83093.91;;;-143.16;20.00
14885;BME280;7534;50.762;7.000;2023-06-14T08:00:36;82741.16;;;-143.16;19.47
14885;BME280;7534;50.762;7.000;2023-06-14T08:03:02;82972.97;;;-143.16;19.54
14885;BME280;7534;50.762;7.000;2023-06-14T08:05:28;82795.59;;;-143.16;19.73
14885;BME280;7534;50.762;7.000;2023-06-14T08:07:54;82856.06;;;-143.16;19.38
14885;BME280;7534;50.762;7.000;2023-06-14T08:10:21;83087.84;;;-143.16;20.06
14885;BME280;7534;50.762;7.000;2023-06-14T08:12:47;83001.19;;;-143.16;19.75
14885;BME280;7534;50.762;7.000;2023-06-14T08:15:17;82481.19;;;-143.16;19.33
14885;BME280;7534;50.762;7.000;2023-06-14T08:17:45;81927.00;;;-143.16;18.25
14885;BME280;7534;50.762;7.000;2023-06-14T08:20:12;81640.91;;;-143.16;17.85
14885;BME280;7534;50.762;7.000;2023-06-14T08:22:39;81453.53;;;-143.16;17.45
14885;BME280;7534;50.762;7.000;2023-06-14T08:25:08;80804.84;;;-143.16;17.06
14885;BME280;7534;50.762;7.000;2023-06-14T08:27:35;80861.25;;;-143.16;16.95
14885;BME280;7534;50.762;7.000;2023-06-14T08:30:01;81330.63;;;-143.16;17.34
14885;BME280;7534;50.762;7.000;2023-06-14T08:32:28;81683.22;;;-143.16;17.64
14885;BME280;7534;50.762;7.000;2023-06-14T08:34:53;82045.91;;;-143.16;18.21
14885;BME280;7534;50.762;7.000;2023-06-14T08:37:19;81965.28;;;-143.16;17.90
14885;BME280;7534;50.762;7.000;2023-06-14T08:39:46;81753.72;;;-143.16;17.79
14885;BME280;7534;50.762;7.000;2023-06-14T08:42:14;82487.22;;;-143.16;18.05
14885;BME280;7534;50.762;7.000;2023-06-14T08:44:39;82372.34;;;-143.16;18.48
14885;BME280;7534;50.762;7.000;2023-06-14T08:47:07;82706.91;;;-143.16;18.51
14885;BME280;7534;50.762;7.000;2023-06-14T08:49:37;82688.75;;;-143.16;18.49
14885;BME280;7534;50.762;7.000;2023-06-14T08:52:08;82563.81;;;-143.16;18.33
14885;BME280;7534;50.762;7.000;2023-06-14T08:54:36;82356.22;;;-143.16;18.02
14885;BME280;7534;50.762;7.000;2023-06-14T08:57:12;82203.06;;;-143.16;17.94
14885;BME280;7534;50.762;7.000;2023-06-14T08:59:47;82231.28;;;-143.16;18.08
14885;BME280;7534;50.762;7.000;2023-06-14T09:02:15;82148.66;;;-143.16;17.84
14885;BME280;7534;50.762;7.000;2023-06-14T09:04:43;82188.97;;;-143.16;17.63
14885;BME280;7534;50.762;7.000;2023-06-14T09:07:11;82255.47;;;-143.16;17.39
14885;BME280;7534;50.762;7.000;2023-06-14T09:09:41;82195.03;;;-143.16;17.43
14885;BME280;7534;50.762;7.000;2023-06-14T09:12:11;82900.41;;;-143.16;17.77
14885;BME280;7534;50.762;7.000;2023-06-14T09:14:38;82793.56;;;-143.16;17.61
14885;BME280;7534;50.762;7.000;2023-06-14T09:17:06;82827.84;;;-143.16;17.80
14885;BME280;7534;50.762;7.000;2023-06-14T09:19:34;82854.03;;;-143.16;17.88
14885;BME280;7534;50.762;7.000;2023-06-14T09:22:03;82561.78;;;-143.16;17.38
14885;BME280;7534;50.762;7.000;2023-06-14T09:24:29;82156.72;;;-143.16;17.18
14885;BME280;7534;50.762;7.000;2023-06-14T09:26:55;82253.47;;;-143.16;17.16
14885;BME280;7534;50.762;7.000;2023-06-14T09:29:21;82517.47;;;-143.16;17.27
14885;BME280;7534;50.762;7.000;2023-06-14T09:31:47;82436.84;;;-143.16;17.14
14885;BME280;7534;50.762;7.000;2023-06-14T09:34:13;82513.44;;;-143.16;17.58
14885;BME280;7534;50.762;7.000;2023-06-14T09:36:40;82680.72;;;-143.16;17.67
14885;BME280;7534;50.762;7.000;2023-06-14T09:39:06;82874.19;;;-143.16;18.03
14885;BME280;7534;50.762;7.000;2023-06-14T09:41:41;83247.09;;;-143.16;18.48
14885;BME280;7534;50.762;7.000;2023-06-14T09:44:10;83140.25;;;-143.16;18.38
14885;BME280;7534;50.762;7.000;2023-06-14T09:46:37;82912.50;;;-143.16;17.78
14885;BME280;7534;50.762;7.000;2023-06-14T09:49:04;82960.88;;;-143.16;18.28
14885;BME280;7534;50.762;7.000;2023-06-14T09:51:31;82606.13;;;-143.16;17.93
14885;BME280;7534;50.762;7.000;2023-06-14T09:54:02;82590.00;;;-143.16;17.76
14885;BME280;7534;50.762;7.000;2023-06-14T09:56:37;82991.09;;;-143.16;18.25
14885;BME280;7534;50.762;7.000;2023-06-14T09:59:05;83243.06;;;-143.16;18.60
14885;BME280;7534;50.762;7.000;2023-06-14T10:01:35;82924.59;;;-143.16;18.06
14885;BME280;7534;50.762;7.000;2023-06-14T10:04:04;82997.16;;;-143.16;18.30
14885;BME280;7534;50.762;7.000;2023-06-14T10:06:32;82575.91;;;-143.16;17.86
14885;BME280;7534;50.762;7.000;2023-06-14T10:09:00;82729.06;;;-143.16;18.09
14885;BME280;7534;50.762;7.000;2023-06-14T10:11:26;82908.47;;;-143.16;18.20
14885;BME280;7534;50.762;7.000;2023-06-14T10:13:58;83055.59;;;-143.16;18.35
14885;BME280;7534;50.762;7.000;2023-06-14T10:17:04;83301.53;;;-143.16;18.89
14885;BME280;7534;50.762;7.000;2023-06-14T10:19:43;83253.13;;;-143.16;18.88
14885;BME280;7534;50.762;7.000;2023-06-14T10:22:18;83226.94;;;-143.16;18.76
14885;BME280;7534;50.762;7.000;2023-06-14T10:24:45;83116.06;;;-143.16;18.45
14885;BME280;7534;50.762;7.000;2023-06-14T10:27:15;83202.75;;;-143.16;18.72
14885;BME280;7534;50.762;7.000;2023-06-14T10:32:18;83525.28;;;-143.16;19.85
14885;BME280;7534;50.762;7.000;2023-06-14T10:34:45;83696.63;;;-143.16;19.72
14885;BME280;7534;50.762;7.000;2023-06-14T10:37:14;83912.38;;;-143.16;19.98
14885;BME280;7534;50.762;7.000;2023-06-14T10:39:44;83896.22;;;-143.16;20.12
14885;BME280;7534;50.762;7.000;2023-06-14T10:42:12;83819.63;;;-143.16;19.88
14885;BME280;7534;50.762;7.000;2023-06-14T10:44:51;83851.88;;;-143.16;19.95
14885;BME280;7534;50.762;7.000;2023-06-14T10:47:33;83986.97;;;-143.16;20.42
14885;BME280;7534;50.762;7.000;2023-06-14T10:50:08;84095.84;;;-143.16;20.90
14885;BME280;7534;50.762;7.000;2023-06-14T10:52:42;83962.75;;;-143.16;20.65
14885;BME280;7534;50.762;7.000;2023-06-14T10:55:18;83942.59;;;-143.16;20.61
14885;BME280;7534;50.762;7.000;2023-06-14T10:57:49;83912.38;;;-143.16;20.09
14885;BME280;7534;50.762;7.000;2023-06-14T11:00:22;83888.16;;;-143.16;20.06
14885;BME280;7534;50.762;7.000;2023-06-14T11:03:57;84061.56;;;-143.16;20.68
14885;BME280;7534;50.762;7.000;2023-06-14T11:06:22;84091.81;;;-143.16;21.13
14885;BME280;7534;50.762;7.000;2023-06-14T11:09:42;84535.41;;;-143.16;21.71
14885;BME280;7534;50.762;7.000;2023-06-14T11:12:17;84563.66;;;-143.16;22.00
14885;BME280;7534;50.762;7.000;2023-06-14T11:14:47;84684.63;;;-143.16;21.85
14885;BME280;7534;50.762;7.000;2023-06-14T11:17:14;84757.25;;;-143.16;22.54
14885;BME280;7534;50.762;7.000;2023-06-14T11:19:39;84890.34;;;-143.16;22.35
14885;BME280;7534;50.762;7.000;2023-06-14T11:22:05;84797.56;;;-143.16;22.26
14885;BME280;7534;50.762;7.000;2023-06-14T11:24:33;84735.06;;;-143.16;22.61
14885;BME280;7534;50.762;7.000;2023-06-14T11:26:58;84799.59;;;-143.16;22.44
14885;BME280;7534;50.762;7.000;2023-06-14T11:29:24;84791.53;;;-143.16;23.40
14885;BME280;7534;50.762;7.000;2023-06-14T11:31:50;84841.94;;;-143.16;23.11
14885;BME280;7534;50.762;7.000;2023-06-14T11:34:17;84900.44;;;-143.16;23.41
14885;BME280;7534;50.762;7.000;2023-06-14T11:36:43;84801.59;;;-143.16;22.98
14885;BME280;7534;50.762;7.000;2023-06-14T11:39:09;84654.41;;;-143.16;22.78
14885;BME280;7534;50.762;7.000;2023-06-14T11:41:44;84603.97;;;-143.16;22.24
14885;BME280;7534;50.762;7.000;2023-06-14T11:44:11;84493.06;;;-143.16;22.26
14885;BME280;7534;50.762;7.000;2023-06-14T11:46:37;84462.81;;;-143.16;21.98
14885;BME280;7534;50.762;7.000;2023-06-14T11:49:04;84325.69;;;-143.16;21.71
14885;BME280;7534;50.762;7.000;2023-06-14T11:51:34;84333.75;;;-143.16;21.89
14885;BME280;7534;50.762;7.000;2023-06-14T11:54:02;84309.56;;;-143.16;21.61
14885;BME280;7534;50.762;7.000;2023-06-14T11:56:30;84230.94;;;-143.16;21.97
14885;BME280;7534;50.762;7.000;2023-06-14T11:58:57;84460.81;;;-143.16;22.30
14885;BME280;7534;50.762;7.000;2023-06-14T12:01:24;84515.25;;;-143.16;22.46
14885;BME280;7534;50.762;7.000;2023-06-14T12:03:53;84612.03;;;-143.16;22.68
14885;BME280;7534;50.762;7.000;2023-06-14T12:06:28;84632.22;;;-143.16;22.89
14885;BME280;7534;50.762;7.000;2023-06-14T12:08:56;84684.63;;;-143.16;22.99
14885;BME280;7534;50.762;7.000;2023-06-14T12:11:22;84618.09;;;-143.16;22.67
14885;BME280;7534;50.762;7.000;2023-06-14T12:13:49;84529.38;;;-143.16;22.52
14885;BME280;7534;50.762;7.000;2023-06-14T12:16:15;84527.34;;;-143.16;22.24
14885;BME280;7534;50.762;7.000;2023-06-14T12:18:41;84493.06;;;-143.16;22.19
14885;BME280;7534;50.762;7.000;2023-06-14T12:21:09;84517.25;;;-143.16;21.90
14885;BME280;7534;50.762;7.000;2023-06-14T12:23:47;84559.63;;;-143.16;21.82
14885;BME280;7534;50.762;7.000;2023-06-14T12:26:18;84559.63;;;-143.16;21.96
14885;BME280;7534;50.762;7.000;2023-06-14T12:28:48;84581.78;;;-143.16;21.74
14885;BME280;7534;50.762;7.000;2023-06-14T12:31:15;84547.50;;;-143.16;22.20
14885;BME280;7534;50.762;7.000;2023-06-14T12:33:42;84547.50;;;-143.16;22.12
14885;BME280;7534;50.762;7.000;2023-06-14T12:36:09;84521.31;;;-143.16;22.00
14885;BME280;7534;50.762;7.000;2023-06-14T12:38:37;84622.13;;;-143.16;21.65
14885;BME280;7534;50.762;7.000;2023-06-14T12:41:03;84733.03;;;-143.16;22.19
14885;BME280;7534;50.762;7.000;2023-06-14T12:43:29;84706.81;;;-143.16;22.01
14885;BME280;7534;50.762;7.000;2023-06-14T12:45:55;84751.19;;;-143.16;22.23
14885;BME280;7534;50.762;7.000;2023-06-14T12:48:21;84753.22;;;-143.16;22.39
14885;BME280;7534;50.762;7.000;2023-06-14T12:50:47;84694.72;;;-143.16;22.16
14885;BME280;7534;50.762;7.000;2023-06-14T12:53:13;84626.16;;;-143.16;22.45
14885;BME280;7534;50.762;7.000;2023-06-14T12:55:40;84755.22;;;-143.16;22.79
14885;BME280;7534;50.762;7.000;2023-06-14T12:58:06;84799.59;;;-143.16;22.61